Time;durP1;ratioP1;P1;durP2;ratioP2;P2;SDS_P1;SDS_P2;PMS_P1;PMS_P2;Temp;Humidity;BMP_temperature;BMP_pressure;BME280_temperature;BME280_humidity;BME280_pressure;Samples;Min_cycle;Max_cycle;Signal;HPM_P1;HPM_P2
2023/02/01 00:02:06;;;;;;;19.80;9.57;;;;;;;1.73;67.55;98737.50;6159942;23;20017;-79
2023/02/01 00:04:32;;;;;;;20.45;8.93;;;;;;;1.54;67.79;98704.00;6185624;23;20021;-78
2023/02/01 00:06:57;;;;;;;22.10;8.85;;;;;;;1.59;68.23;98717.69;6159090;23;20191;-80
2023/02/01 00:09:24;;;;;;;17.60;8.45;;;;;;;1.75;67.80;98723.00;6159550;23;20397;-78
2023/02/01 00:11:50;;;;;;;18.50;8.25;;;;;;;1.40;67.65;98660.25;6159007;23;20028;-79
2023/02/01 00:14:17;;;;;;;18.95;8.30;;;;;;;1.54;67.94;98687.72;6159168;23;20017;-79
2023/02/01 00:16:43;;;;;;;18.73;7.60;;;;;;;1.85;68.06;98731.63;6185873;23;20027;-78
2023/02/01 00:19:14;;;;;;;19.42;8.68;;;;;;;1.80;67.90;98722.19;6186267;23;20587;-78
2023/02/01 00:21:41;;;;;;;17.38;8.77;;;;;;;1.80;67.69;98711.94;6186649;23;20017;-78
2023/02/01 00:24:09;;;;;;;18.85;8.38;;;;;;;1.86;67.83;98720.53;6159747;23;20021;-78
2023/02/01 00:26:40;;;;;;;16.83;7.65;;;;;;;1.98;67.72;98730.88;6159212;23;20016;-78
2023/02/01 00:29:12;;;;;;;18.33;8.95;;;;;;;1.92;67.39;98721.44;6110455;23;20021;-79
2023/02/01 00:31:39;;;;;;;21.45;8.65;;;;;;;2.01;67.58;98737.75;6159840;23;20116;-78
2023/02/01 00:34:05;;;;;;;18.27;7.60;;;;;;;2.01;67.23;98742.88;6135096;23;20044;-80
2023/02/01 00:36:31;;;;;;;20.30;8.68;;;;;;;1.82;67.39;98709.34;6134589;23;20056;-79
2023/02/01 00:38:57;;;;;;;19.35;8.18;;;;;;;1.82;67.47;98708.50;6137412;23;20024;-78
2023/02/01 00:41:25;;;;;;;21.40;8.95;;;;;;;1.98;67.18;98743.72;6165258;23;20027;-78
2023/02/01 00:43:51;;;;;;;18.83;8.77;;;;;;;1.93;67.24;98737.69;6198257;23;20020;-79
2023/02/01 00:46:19;;;;;;;22.48;9.13;;;;;;;1.94;67.53;98737.72;6165542;23;20017;-78
2023/02/01 00:48:45;;;;;;;19.75;8.57;;;;;;;1.95;66.97;98738.56;6138189;23;20013;-79
2023/02/01 00:51:14;;;;;;;21.23;8.80;;;;;;;1.72;67.39;98685.34;6159843;23;20005;-80
2023/02/01 00:53:40;;;;;;;18.15;8.30;;;;;;;2.02;67.48;98734.34;6186120;23;20013;-78
2023/02/01 00:56:08;;;;;;;19.27;8.25;;;;;;;2.01;67.27;98735.19;6134288;23;20362;-79
2023/02/01 00:58:34;;;;;;;18.90;8.38;;;;;;;1.99;67.53;98729.19;6134955;23;20017;-80
2023/02/01 01:01:10;;;;;;;21.15;9.10;;;;;;;1.99;66.87;98740.31;6133912;23;20096;-80
2023/02/01 01:03:39;;;;;;;21.08;9.45;;;;;;;1.98;67.30;98741.16;6134709;23;20427;-78
2023/02/01 01:06:13;;;;;;;20.83;9.15;;;;;;;1.93;66.88;98727.41;6158087;23;20029;-79
2023/02/01 01:08:40;;;;;;;20.52;8.98;;;;;;;1.86;66.80;98720.53;6158475;23;20028;-78
2023/02/01 01:11:18;;;;;;;19.58;8.52;;;;;;;1.93;67.13;98741.13;6135683;23;20013;-77
2023/02/01 01:13:47;;;;;;;21.52;9.45;;;;;;;1.88;66.80;98727.38;6173068;23;20021;-78
2023/02/01 01:16:14;;;;;;;21.08;9.18;;;;;;;1.93;67.35;98737.69;6182044;23;20031;-78
2023/02/01 01:18:40;;;;;;;18.73;8.45;;;;;;;1.80;67.11;98724.75;6199864;23;20527;-79
2023/02/01 01:21:08;;;;;;;23.15;9.32;;;;;;;1.86;67.17;98730.78;6162619;23;20119;-78
2023/02/01 01:23:35;;;;;;;22.95;9.13;;;;;;;1.92;67.00;98741.97;6087955;23;20017;-79
2023/02/01 01:26:09;;;;;;;22.45;9.52;;;;;;;1.76;66.98;98715.31;6185984;23;20021;-78
2023/02/01 01:28:36;;;;;;;21.67;8.95;;;;;;;1.74;67.44;98714.44;6159799;23;20028;-79
2023/02/01 01:31:02;;;;;;;18.60;8.73;;;;;;;1.92;67.12;98741.97;6159461;23;20013;-80
2023/02/01 01:33:28;;;;;;;22.35;9.45;;;;;;;1.83;66.88;98739.31;6158862;23;20108;-77
2023/02/01 01:35:56;;;;;;;18.42;9.15;;;;;;;1.94;66.79;98752.22;6159055;23;20521;-79
2023/02/01 01:38:22;;;;;;;18.80;8.38;;;;;;;1.85;66.70;98718.81;6185634;23;20490;-77
2023/02/01 01:40:51;;;;;;;21.73;9.10;;;;;;;1.78;66.89;98712.75;6159163;23;20017;-79
2023/02/01 01:43:22;;;;;;;20.48;8.82;;;;;;;1.96;67.17;98732.59;6159228;23;20532;-80
2023/02/01 01:45:50;;;;;;;17.88;8.30;;;;;;;1.89;67.00;98721.41;6134860;23;20021;-78
2023/02/01 01:48:23;;;;;;;20.88;8.98;;;;;;;2.06;67.05;98738.66;6109652;23;20100;-77
2023/02/01 01:51:10;;;;;;;22.13;9.73;;;;;;;1.89;66.57;98720.53;6133329;23;20579;-79
2023/02/01 01:53:48;;;;;;;21.02;9.30;;;;;;;2.01;66.84;98746.31;6157498;23;20032;-79
2023/02/01 01:56:14;;;;;;;23.55;9.15;;;;;;;2.05;66.68;98745.50;6184318;23;20047;-76
2023/02/01 01:58:42;;;;;;;22.42;9.50;;;;;;;2.07;67.15;98746.38;6110389;23;20094;-79
2023/02/01 02:01:08;;;;;;;20.85;8.93;;;;;;;1.88;66.90;98717.13;6133903;23;20040;-78
2023/02/01 02:03:45;;;;;;;22.88;9.55;;;;;;;1.88;66.95;98705.97;6185435;23;20017;-79
2023/02/01 02:06:36;;;;;;;21.95;9.05;;;;;;;2.02;66.46;98726.63;6184938;23;20071;-80
2023/02/01 02:09:03;;;;;;;22.38;9.68;;;;;;;2.16;66.99;98742.16;6124407;23;20027;-78
2023/02/01 02:11:29;;;;;;;18.30;8.60;;;;;;;2.16;66.67;98731.88;6184693;23;20021;-78
2023/02/01 02:13:57;;;;;;;23.50;9.30;;;;;;;2.04;66.38;98702.72;6186352;23;20111;-79
2023/02/01 02:16:33;;;;;;;22.65;9.82;;;;;;;2.29;66.66;98749.13;6134861;23;20024;-77
2023/02/01 02:19:21;;;;;;;20.75;9.50;;;;;;;2.32;66.59;98748.28;6137333;23;20021;-80
2023/02/01 02:22:13;;;;;;;19.75;9.35;;;;;;;2.33;66.52;98743.13;6184205;23;20013;-78
2023/02/01 02:25:00;;;;;;;21.83;9.40;;;;;;;2.38;66.01;98745.75;6158201;23;20351;-79
2023/02/01 02:27:44;;;;;;;20.08;9.27;;;;;;;2.24;66.23;98735.38;6184516;23;20021;-77
2023/02/01 02:30:44;;;;;;;22.52;9.25;;;;;;;2.36;66.51;98753.44;6111476;23;20418;-81
2023/02/01 05:26:14;;;;;;;23.23;9.88;;;;;;;1.89;65.92;98843.69;6180275;23;20032;-79
2023/02/01 05:28:42;;;;;;;25.00;10.43;;;;;;;1.85;66.58;98829.13;6136139;23;20023;-79
2023/02/01 05:31:16;;;;;;;24.58;10.38;;;;;;;2.05;66.43;98853.28;6160660;23;20019;-79
2023/02/01 05:33:42;;;;;;;27.00;11.10;;;;;;;2.01;66.38;98831.00;6149940;23;20020;-77
2023/02/01 05:36:09;;;;;;;25.02;10.65;;;;;;;2.06;65.96;98847.31;6207758;23;20063;-78
2023/02/01 05:38:35;;;;;;;22.92;9.68;;;;;;;1.89;66.21;98816.34;6144149;23;20025;-80
2023/02/01 05:41:01;;;;;;;30.50;11.32;;;;;;;1.95;66.52;98829.25;6166378;23;20012;-80
2023/02/01 05:43:27;;;;;;;26.23;11.25;;;;;;;2.02;66.73;98835.28;6188619;23;20048;-79
2023/02/01 05:45:53;;;;;;;24.35;9.80;;;;;;;1.96;66.12;98832.66;6163158;23;20071;-78
2023/02/01 05:48:19;;;;;;;24.02;10.18;;;;;;;2.14;66.40;98859.34;6166367;23;20013;-80
2023/02/01 05:50:46;;;;;;;23.42;9.25;;;;;;;2.09;65.81;98864.44;6160973;23;20013;-78
2023/02/01 05:53:13;;;;;;;27.73;11.02;;;;;;;1.99;66.17;98865.22;6165059;23;20020;-81
2023/02/01 05:56:00;;;;;;;25.00;10.73;;;;;;;1.97;66.01;98870.31;6135797;23;20020;-78
2023/02/01 05:58:39;;;;;;;24.13;10.55;;;;;;;2.03;66.11;98866.94;6189183;23;20025;-80
2023/02/01 06:01:05;;;;;;;24.25;9.90;;;;;;;1.49;66.47;98788.53;6203165;23;20063;-77
2023/02/01 06:03:31;;;;;;;25.83;10.48;;;;;;;1.78;66.32;98834.19;6182584;23;20005;-80
2023/02/01 06:05:57;;;;;;;26.80;10.40;;;;;;;2.06;66.46;98859.28;6187040;23;20017;-80
2023/02/01 06:08:25;;;;;;;25.50;10.68;;;;;;;1.87;66.17;98845.41;6158652;23;20463;-81
2023/02/01 06:10:57;;;;;;;20.38;9.30;;;;;;;1.93;66.44;98853.16;6159800;23;20013;-82
2023/02/01 06:13:23;;;;;;;24.75;10.07;;;;;;;2.08;66.35;98870.41;6162709;23;20020;-79
2023/02/01 06:15:49;;;;;;;23.77;9.80;;;;;;;1.92;66.52;98857.44;6174642;23;20047;-79
2023/02/01 06:18:16;;;;;;;24.23;10.45;;;;;;;1.88;65.57;98860.81;6180126;23;20021;-81
2023/02/01 06:20:42;;;;;;;24.45;10.32;;;;;;;2.04;66.16;98878.94;6174495;23;20021;-78
2023/02/01 06:23:08;;;;;;;28.25;11.25;;;;;;;2.11;65.92;98891.00;6192479;23;20075;-79
2023/02/01 06:25:34;;;;;;;23.80;10.05;;;;;;;2.02;66.16;98881.50;6187888;23;20029;-78
2023/02/01 06:28:05;;;;;;;22.98;9.85;;;;;;;2.02;66.24;98870.34;6167514;23;20044;-81
2023/02/01 06:30:32;;;;;;;24.42;10.45;;;;;;;2.15;65.86;98879.91;6190004;23;20013;-81
2023/02/01 06:32:58;;;;;;;30.85;11.52;;;;;;;2.22;65.82;98886.81;6139167;23;20042;-81
2023/02/01 06:35:29;;;;;;;24.77;10.75;;;;;;;2.16;65.98;98875.63;6110539;23;20088;-79
2023/02/01 06:37:56;;;;;;;28.13;11.02;;;;;;;2.24;65.89;98886.84;6113292;23;20024;-80
2023/02/01 06:40:28;;;;;;;24.83;10.85;;;;;;;2.23;66.12;98901.38;6140454;23;20017;-81
2023/02/01 06:42:53;;;;;;;26.33;9.88;;;;;;;2.12;66.03;98897.84;6164386;23;20021;-79
2023/02/01 06:45:20;;;;;;;23.42;10.18;;;;;;;2.02;66.17;98867.78;6160505;23;20013;-78
2023/02/01 06:47:46;;;;;;;25.35;9.75;;;;;;;2.22;66.27;98893.66;6159935;23;20024;-78
2023/02/01 06:50:18;;;;;;;24.92;10.80;;;;;;;2.11;66.26;98873.03;6160129;23;20017;-80
2023/02/01 06:52:57;;;;;;;25.95;9.77;;;;;;;2.09;65.54;98865.31;6160183;23;20015;-79
2023/02/01 06:55:23;;;;;;;25.73;9.52;;;;;;;2.09;65.40;98875.59;6162490;23;20032;-80
2023/02/01 06:57:53;;;;;;;23.52;9.93;;;;;;;2.17;65.85;98901.34;6138712;23;20100;-78
2023/02/01 07:00:20;;;;;;;23.52;10.02;;;;;;;2.20;65.84;98892.78;6173886;23;20025;-79
2023/02/01 07:02:45;;;;;;;20.40;9.00;;;;;;;2.23;65.74;98897.97;6182602;23;20028;-76
2023/02/01 07:05:11;;;;;;;19.20;8.75;;;;;;;2.31;65.53;98919.47;6193994;23;20021;-79
2023/02/01 07:07:37;;;;;;;20.35;10.60;;;;;;;2.16;65.50;98903.88;6139453;23;20052;-79
2023/02/01 07:10:03;;;;;;;20.45;9.57;;;;;;;2.20;66.19;98905.63;6190455;23;20013;-80
2023/02/01 07:12:40;;;;;;;24.35;10.18;;;;;;;2.16;65.80;98883.34;6165920;23;20021;-80
2023/02/01 07:15:07;;;;;;;21.55;9.60;;;;;;;2.41;65.62;98916.13;6143960;23;20021;-78
2023/02/01 07:17:36;;;;;;;20.75;9.32;;;;;;;2.29;65.25;98889.44;6120780;23;20017;-79
2023/02/01 07:20:05;;;;;;;23.67;9.02;;;;;;;2.39;65.50;98922.94;6129045;23;20047;-79
2023/02/01 07:22:31;;;;;;;20.48;9.55;;;;;;;2.11;65.18;98881.56;6158497;23;20020;-78
2023/02/01 07:24:59;;;;;;;23.05;8.55;;;;;;;2.16;65.26;98889.34;6157599;23;20024;-78
2023/02/01 07:27:28;;;;;;;23.95;9.88;;;;;;;2.19;65.57;98902.22;6155049;23;20032;-81
2023/02/01 07:30:01;;;;;;;19.48;8.90;;;;;;;2.31;64.92;98909.19;6153848;23;20017;-80
2023/02/01 07:32:33;;;;;;;19.50;8.95;;;;;;;2.03;65.85;98849.84;6131495;23;20024;-79
2023/02/01 07:35:25;;;;;;;19.23;8.68;;;;;;;2.53;65.29;98935.09;6169643;23;20036;-80
2023/02/01 07:37:54;;;;;;;19.02;8.65;;;;;;;2.24;65.20;98879.16;6166140;23;20528;-80
2023/02/01 07:40:24;;;;;;;20.27;9.30;;;;;;;2.33;65.26;98893.78;6191584;23;20104;-82
2023/02/01 07:43:08;;;;;;;19.90;8.95;;;;;;;2.60;65.62;98925.72;6168872;23;20021;-79
2023/02/01 07:45:35;;;;;;;18.98;8.77;;;;;;;2.70;65.68;98924.94;6195308;23;20017;-80
2023/02/01 07:48:02;;;;;;;20.05;8.80;;;;;;;2.67;65.06;98910.38;6193636;23;20017;-78
2023/02/01 07:50:28;;;;;;;19.40;8.73;;;;;;;2.75;64.75;98922.44;6192992;23;20100;-78
2023/02/01 07:53:00;;;;;;;19.63;9.68;;;;;;;2.69;65.09;98912.94;6193380;23;20027;-80
2023/02/01 07:55:47;;;;;;;17.05;8.43;;;;;;;2.78;64.97;98914.72;6194097;23;20064;-80
2023/02/01 07:58:21;;;;;;;18.75;9.07;;;;;;;2.48;64.60;98857.13;6161541;23;20017;-80
2023/02/01 08:04:09;;;;;;;18.60;7.93;;;;;;;2.61;64.37;98884.63;6150501;23;20084;-78
2023/02/01 08:06:35;;;;;;;18.98;8.25;;;;;;;2.75;64.24;98918.13;6193354;23;20024;-83
2023/02/01 08:09:11;;;;;;;;;;;;;;;2.73;63.24;98919.00;6169447;23;20017;-79
2023/02/01 08:11:37;;;;;;;17.50;8.52;;;;;;;2.74;64.14;98916.41;6141385;23;19912;-79
2023/02/01 08:14:25;;;;;;;20.95;9.18;;;;;;;2.71;64.19;98883.00;6120762;23;20021;-80
2023/02/01 08:16:57;;;;;;;16.50;8.27;;;;;;;2.84;64.46;98879.69;6167307;23;20017;-79
2023/02/01 08:19:32;;;;;;;;;;;;;;;3.25;64.18;98903.09;6198216;23;20717;-81
2023/02/01 08:22:06;;;;;;;18.52;8.57;;;;;;;2.87;63.81;98822.31;6196478;23;20061;-81
2023/02/01 08:24:33;;;;;;;20.65;9.02;;;;;;;3.24;63.61;98889.38;6169344;23;20036;-79
2023/02/01 08:27:02;;;;;;;19.23;8.77;;;;;;;3.10;63.29;98878.97;6177050;23;20020;-78
2023/02/01 08:29:34;;;;;;;25.42;9.82;;;;;;;3.05;62.62;98919.25;6208738;23;20023;-81
2023/02/01 08:32:00;;;;;;;21.95;9.85;;;;;;;2.71;63.61;98863.31;6179216;23;20069;-78
2023/02/01 08:34:26;;;;;;;22.02;9.55;;;;;;;2.92;62.86;98895.16;6197773;23;20021;-81
2023/02/01 08:36:59;;;;;;;22.48;10.55;;;;;;;3.00;63.05;98915.78;6166711;23;20020;-78
2023/02/01 08:39:26;;;;;;;19.98;9.15;;;;;;;3.06;62.95;98909.81;6188815;23;20021;-79
2023/02/01 08:44:36;;;;;;;21.83;10.02;;;;;;;3.27;62.95;98907.38;6189912;23;20100;-80
2023/02/01 08:47:03;;;;;;;23.50;10.95;;;;;;;3.27;62.89;98915.09;6164306;23;20048;-80
2023/02/01 08:49:29;;;;;;;25.55;11.07;;;;;;;3.20;62.58;98903.03;6191594;23;20128;-79
2023/02/01 08:51:55;;;;;;;24.02;10.90;;;;;;;3.04;61.60;98906.38;6165715;23;20017;-79
2023/02/01 08:54:22;;;;;;;24.33;11.27;;;;;;;2.93;62.45;98904.59;6162812;23;20028;-80
2023/02/01 08:56:48;;;;;;;26.33;10.05;;;;;;;2.94;62.38;98921.72;6139275;23;20020;-79
2023/02/01 08:59:14;;;;;;;21.48;9.90;;;;;;;2.76;62.24;98909.59;6194669;23;20020;-79
2023/02/01 09:01:40;;;;;;;24.63;11.00;;;;;;;2.67;62.58;98907.81;6178043;23;20024;-79
2023/02/01 09:04:05;;;;;;;23.15;10.45;;;;;;;2.71;62.56;98916.38;6153657;23;20127;-80
2023/02/01 09:06:32;;;;;;;20.83;10.32;;;;;;;2.58;62.76;98905.13;6202317;23;20017;-79
2023/02/01 09:08:58;;;;;;;24.77;11.07;;;;;;;2.46;62.49;98887.91;6174503;23;20021;-79
2023/02/01 09:11:25;;;;;;;25.55;11.05;;;;;;;2.64;63.23;98901.78;6168037;23;20092;-79
2023/02/01 09:13:51;;;;;;;22.20;10.32;;;;;;;2.79;62.98;98921.59;6117886;23;20021;-79
2023/02/01 09:16:17;;;;;;;22.85;10.32;;;;;;;2.92;63.35;98915.72;6165236;23;20017;-80
2023/02/01 09:18:44;;;;;;;23.08;10.20;;;;;;;2.70;62.11;98886.41;6190613;23;20098;-80
2023/02/01 09:21:12;;;;;;;24.33;10.60;;;;;;;2.42;62.80;98850.22;6188090;23;20017;-79
2023/02/01 09:23:39;;;;;;;23.23;10.48;;;;;;;2.76;62.74;98909.59;6187717;23;20044;-79
2023/02/01 09:26:06;;;;;;;22.30;10.63;;;;;;;2.78;62.80;98910.47;6186107;23;20059;-81
2023/02/01 09:28:32;;;;;;;22.30;10.80;;;;;;;2.76;62.88;98898.47;6136563;23;20649;-80
2023/02/01 09:31:00;;;;;;;25.45;11.10;;;;;;;2.86;62.91;98893.41;6187245;23;20159;-80
2023/02/01 09:33:28;;;;;;;23.92;11.05;;;;;;;2.84;62.80;98877.13;6137055;23;20031;-80
2023/02/01 09:36:03;;;;;;;19.92;9.95;;;;;;;3.00;62.76;98906.34;6161637;23;20467;-81
2023/02/01 09:38:31;;;;;;;21.92;10.70;;;;;;;2.52;62.65;98838.31;6110738;23;20044;-80
2023/02/01 09:41:31;;;;;;;23.15;10.38;;;;;;;2.41;62.81;98815.13;6160305;23;20017;-80
2023/02/01 09:44:34;;;;;;;20.63;9.65;;;;;;;3.01;62.38;98902.91;6104888;23;20020;-81
2023/02/01 09:47:10;;;;;;;23.50;11.05;;;;;;;2.79;62.89;98865.94;6138323;23;20035;-81
2023/02/01 09:52:53;;;;;;;23.02;10.43;;;;;;;2.99;62.50;98904.63;6196323;23;20017;-80
2023/02/01 09:55:46;;;;;;;22.73;10.18;;;;;;;2.93;62.25;98891.75;6161727;23;20016;-82
2023/02/01 09:58:25;;;;;;;20.88;9.85;;;;;;;3.06;62.71;98894.38;6162951;23;20025;-80
2023/02/01 10:00:57;;;;;;;22.40;10.07;;;;;;;3.00;62.62;98895.22;6163397;23;20013;-80
2023/02/01 10:03:51;;;;;;;21.45;10.38;;;;;;;3.05;62.46;98872.09;6187818;23;20044;-79
2023/02/01 10:06:27;;;;;;;21.38;9.73;;;;;;;3.18;62.18;98881.63;6145922;23;20095;-81
2023/02/01 10:09:21;;;;;;;23.02;10.20;;;;;;;3.26;61.98;98882.53;6161366;23;20017;-80
2023/02/01 10:12:16;;;;;;;22.23;9.90;;;;;;;2.94;61.45;98865.19;6188068;23;20085;-80
2023/02/01 10:15:19;;;;;;;20.73;8.77;;;;;;;3.00;61.54;98893.50;6162415;23;20349;-80
2023/02/01 10:18:10;;;;;;;21.65;10.13;;;;;;;2.93;61.95;98867.72;6136406;23;20031;-81
2023/02/01 10:20:58;;;;;;;21.33;10.38;;;;;;;3.23;62.13;98876.50;6135080;23;20447;-80
2023/02/01 10:23:51;;;;;;;21.77;10.65;;;;;;;3.27;61.87;98881.66;6132556;23;20344;-80
2023/02/01 10:26:47;;;;;;;22.77;10.50;;;;;;;3.31;62.58;98892.84;6188026;23;20017;-79
2023/02/01 10:29:24;;;;;;;21.15;10.10;;;;;;;3.31;60.94;98893.69;6187230;23;20021;-78
2023/02/01 10:32:37;;;;;;;23.30;10.65;;;;;;;3.14;60.97;98887.59;6164760;23;20028;-81
2023/02/01 10:35:19;;;;;;;21.45;10.65;;;;;;;3.05;61.50;98870.41;6194624;23;20055;-81
2023/02/01 10:37:48;;;;;;;25.92;10.70;;;;;;;3.05;61.59;98872.09;6164387;23;20024;-80
2023/02/01 10:40:29;;;;;;;23.65;10.85;;;;;;;2.84;61.18;98845.41;6122050;23;20016;-80
2023/02/01 10:43:06;;;;;;;21.90;10.88;;;;;;;1.73;61.39;98688.78;6169140;23;20025;-82
2023/02/01 10:45:42;;;;;;;25.63;13.55;;;;;;;1.74;61.63;98704.16;6169005;23;20040;-82
2023/02/01 10:48:12;;;;;;;23.17;10.82;;;;;;;2.35;60.64;98823.59;6143626;23;20023;-81
2023/02/01 10:50:50;;;;;;;23.95;11.07;;;;;;;2.23;61.60;98795.28;6144710;23;20017;-80
2023/02/01 10:53:46;;;;;;;21.83;10.52;;;;;;;2.13;61.46;98781.50;6145022;23;20158;-80
2023/02/01 10:56:13;;;;;;;24.02;11.35;;;;;;;2.54;61.53;98831.47;6194480;23;20123;-81
2023/02/01 10:58:47;;;;;;;24.52;10.50;;;;;;;2.71;61.56;98859.88;6167762;23;20108;-80
2023/02/01 11:01:35;;;;;;;23.45;9.90;;;;;;;2.97;61.86;98878.06;6169357;23;20013;-81
2023/02/01 11:04:10;;;;;;;22.92;10.48;;;;;;;2.82;60.50;98862.50;6169381;23;20039;-79
2023/02/01 11:06:45;;;;;;;26.38;11.73;;;;;;;2.97;61.40;98872.94;6195279;23;20013;-81
2023/02/01 11:09:20;;;;;;;25.45;11.20;;;;;;;3.19;61.89;98872.19;6144115;23;20411;-81
2023/02/01 11:12:32;;;;;;;24.15;11.48;;;;;;;2.68;61.99;98747.69;6118205;23;20013;-80
2023/02/01 11:15:49;;;;;;;;;;;;;;;;;;;;;
2023/02/01 11:18:32;;;;;;;25.90;11.70;;;;;;;3.24;61.10;98848.22;6196111;23;20355;-80
2023/02/01 11:21:13;;;;;;;24.35;11.05;;;;;;;3.33;61.15;98872.28;6181801;23;20004;-80
2023/02/01 11:23:54;;;;;;;24.48;10.90;;;;;;;2.22;61.20;98694.28;6180836;23;20064;-80
2023/02/01 11:26:42;;;;;;;21.00;10.63;;;;;;;2.70;61.56;98760.50;6170915;23;20021;-82
2023/02/01 11:29:17;;;;;;;23.30;10.98;;;;;;;2.77;60.73;98766.53;6121275;23;20025;-80
2023/02/01 11:32:16;;;;;;;23.00;10.10;;;;;;;2.20;60.48;98677.16;6151361;23;20398;-81
2023/02/01 11:34:48;;;;;;;21.20;10.07;;;;;;;3.28;60.52;98883.41;6146904;23;20027;-82
2023/02/01 11:37:38;;;;;;;20.02;9.57;;;;;;;1.84;60.39;98686.31;6196710;23;20020;-82
2023/02/01 11:40:39;;;;;;;23.75;9.98;;;;;;;3.06;60.48;98884.09;6171961;23;20395;-79
2023/02/01 11:43:22;;;;;;;19.27;8.50;;;;;;;2.96;60.66;98885.75;6146410;23;20089;-81
2023/02/01 11:46:03;;;;;;;13.90;7.90;;;;;;;2.97;60.79;98885.78;6173330;23;20024;-81
2023/02/01 11:48:33;;;;;;;15.13;7.90;;;;;;;2.79;60.93;98844.50;6182789;23;20041;-79
2023/02/01 11:51:28;;;;;;;17.45;8.23;;;;;;;3.12;60.62;98885.00;6211196;23;20017;-81
2023/02/01 11:54:51;;;;;;;16.77;8.05;;;;;;;3.12;60.53;98897.00;6155451;23;20020;-80
2023/02/01 11:57:55;;;;;;;14.65;7.38;;;;;;;3.00;60.29;98905.50;6083490;23;20014;-80
2023/02/01 12:00:32;;;;;;;16.98;8.07;;;;;;;2.85;60.61;98885.66;6051209;23;20014;-81
2023/02/01 12:03:29;;;;;;;17.25;8.32;;;;;;;2.80;60.54;98870.22;6193902;23;20032;-80
2023/02/01 12:06:01;;;;;;;13.82;7.22;;;;;;;2.92;60.31;98902.88;6144699;23;20107;-79
2023/02/01 12:08:27;;;;;;;13.57;7.10;;;;;;;2.91;60.51;98908.84;6142097;23;20024;-79
2023/02/01 12:11:11;;;;;;;13.82;7.15;;;;;;;2.88;60.46;98898.56;6143831;23;20017;-79
2023/02/01 12:14:19;;;;;;;16.02;7.43;;;;;;;2.92;60.18;98910.59;6195697;23;20012;-82
2023/02/01 12:17:05;;;;;;;17.70;7.70;;;;;;;2.77;60.10;98900.16;6169683;23;20020;-79
2023/02/01 12:19:47;;;;;;;13.10;6.55;;;;;;;2.67;60.12;98917.19;6169286;23;20024;-80
2023/02/01 12:22:34;;;;;;;15.15;7.45;;;;;;;2.55;60.56;98916.25;6169510;23;20059;-79
2023/02/01 12:25:07;;;;;;;14.88;7.18;;;;;;;2.39;60.64;98904.97;6195595;23;20017;-80
2023/02/01 12:27:49;;;;;;;17.25;8.65;;;;;;;2.49;60.35;98923.06;6143555;23;20031;-80
2023/02/01 12:30:45;;;;;;;18.63;8.77;;;;;;;2.42;60.58;98927.28;6193870;23;20016;-79
2023/02/01 12:34:06;;;;;;;19.42;9.00;;;;;;;2.39;60.70;98928.06;6125365;23;20041;-80
2023/02/01 12:36:52;;;;;;;18.88;8.52;;;;;;;2.18;60.50;98903.06;6168529;23;20021;-82
2023/02/01 12:39:28;;;;;;;19.02;8.23;;;;;;;2.35;60.61;98925.47;6174083;23;20016;-80
2023/02/01 12:42:17;;;;;;;21.33;9.18;;;;;;;2.39;60.83;98922.94;6166545;23;20012;-83
2023/02/01 12:45:01;;;;;;;19.95;8.27;;;;;;;2.18;60.48;98886.78;6164980;23;20044;-81
2023/02/01 12:47:43;;;;;;;17.77;8.90;;;;;;;2.28;61.00;98904.00;6206719;23;20004;-81
2023/02/01 12:50:28;;;;;;;18.08;8.32;;;;;;;2.42;60.94;98932.41;6154379;23;20115;-81
2023/02/01 12:53:27;;;;;;;16.50;7.93;;;;;;;2.39;61.19;98947.78;6169564;23;20021;-78
2023/02/01 12:56:04;;;;;;;22.25;8.68;;;;;;;2.21;60.91;98913.34;6166656;23;20104;-81
2023/02/01 12:58:42;;;;;;;16.67;7.40;;;;;;;2.30;61.04;98942.53;6167161;23;20021;-81
2023/02/01 13:02:01;;;;;;;16.27;7.40;;;;;;;2.32;60.96;98945.97;6141934;23;20012;-81
2023/02/01 13:04:58;;;;;;;17.88;7.75;;;;;;;2.22;60.88;98951.00;6174372;23;20017;-82
2023/02/01 13:07:41;;;;;;;16.73;8.02;;;;;;;2.05;60.82;98930.28;6195495;23;20025;-80
2023/02/01 13:10:58;;;;;;;17.50;8.15;;;;;;;2.10;61.49;98945.72;6167963;23;20017;-79
2023/02/01 13:13:42;;;;;;;14.60;7.25;;;;;;;2.04;61.27;98933.69;6078688;23;20018;-79
2023/02/01 13:16:28;;;;;;;18.40;7.78;;;;;;;2.13;61.37;98939.75;6081395;23;20025;-80
2023/02/01 13:19:41;;;;;;;15.85;8.07;;;;;;;2.13;61.27;98947.47;6125287;23;20482;-80
2023/02/01 13:22:18;;;;;;;15.48;7.00;;;;;;;1.86;60.34;98915.53;6191660;23;20013;-81
2023/02/01 13:24:56;;;;;;;18.20;8.65;;;;;;;1.73;61.03;98887.13;6167507;23;20025;-81
2023/02/01 13:27:22;;;;;;;17.15;8.05;;;;;;;1.83;61.57;98888.09;6165734;23;20013;-82
2023/02/01 13:29:56;;;;;;;18.92;8.43;;;;;;;2.08;60.71;98943.16;6163753;23;20029;-78
2023/02/01 13:32:51;;;;;;;18.00;7.65;;;;;;;2.05;61.11;98937.13;6140847;23;20409;-80
2023/02/01 13:35:38;;;;;;;17.63;7.78;;;;;;;2.13;61.35;98932.94;6186456;23;20150;-80
2023/02/01 13:38:26;;;;;;;17.10;7.68;;;;;;;2.17;61.10;98933.81;6159945;23;20016;-80
2023/02/01 13:41:26;;;;;;;19.73;8.70;;;;;;;2.21;60.87;98944.13;6136047;23;20017;-82
2023/02/01 13:44:11;;;;;;;17.77;8.70;;;;;;;2.16;61.15;98938.13;6155267;23;20021;-81
2023/02/01 13:46:48;;;;;;;15.70;7.80;;;;;;;1.80;60.57;98896.63;6149025;23;20021;-79
2023/02/01 13:49:39;;;;;;;20.58;8.73;;;;;;;1.93;61.35;98931.00;6159774;23;20081;-81
2023/02/01 13:52:05;;;;;;;17.15;8.32;;;;;;;1.44;61.61;98844.03;6187287;23;20013;-81
2023/02/01 13:54:39;;;;;;;15.13;7.47;;;;;;;1.61;61.23;98900.66;6170866;23;20098;-79
2023/02/01 13:57:34;;;;;;;16.42;7.97;;;;;;;1.58;61.60;98908.31;6161267;23;20151;-81
2023/02/01 14:00:25;;;;;;;18.58;8.40;;;;;;;1.84;61.46;98942.88;6166314;23;20095;-79
2023/02/01 14:03:12;;;;;;;19.77;8.00;;;;;;;1.92;61.91;98956.63;6141705;23;20051;-82
2023/02/01 14:05:38;;;;;;;17.63;8.05;;;;;;;1.88;61.30;98949.72;6168826;23;20362;-80
2023/02/01 14:08:07;;;;;;;19.05;8.38;;;;;;;1.89;61.86;98951.47;6142572;23;20024;-78
2023/02/01 14:10:54;;;;;;;18.55;8.55;;;;;;;1.75;61.42;98951.31;6143874;23;20091;-80
2023/02/01 14:13:37;;;;;;;18.10;8.88;;;;;;;1.73;62.27;98952.97;6176121;23;20017;-81
2023/02/01 14:16:03;;;;;;;19.52;9.00;;;;;;;1.69;61.66;98944.38;6210907;23;20044;-80
2023/02/01 14:18:35;;;;;;;20.20;9.25;;;;;;;1.71;62.21;98947.81;6200746;23;20017;-81
2023/02/01 14:21:13;;;;;;;;;;;;;;;1.83;61.97;98951.41;6162978;23;20016;-80
2023/02/01 14:23:42;;;;;;;21.00;8.02;;;;;;;1.77;61.31;98958.16;6158909;23;20732;-79
2023/02/01 14:26:14;;;;;;;17.75;8.35;;;;;;;1.78;61.87;98965.03;6154015;23;20028;-81
2023/02/01 14:28:49;;;;;;;18.77;8.90;;;;;;;1.62;61.73;98942.59;6174672;23;20017;-79
2023/02/01 14:31:26;;;;;;;19.98;9.38;;;;;;;1.74;62.21;98955.56;6159720;23;20017;-82
2023/02/01 14:33:59;;;;;;;24.58;9.55;;;;;;;1.53;61.83;98916.78;6175147;23;20001;-80
2023/02/01 14:36:27;;;;;;;20.83;8.80;;;;;;;1.49;61.67;98915.91;6186167;23;20004;-79
2023/02/01 14:38:53;;;;;;;23.40;9.38;;;;;;;1.76;62.13;98951.31;6173934;23;20025;-82
2023/02/01 14:41:29;;;;;;;19.13;8.23;;;;;;;1.79;61.73;98966.75;6191436;23;20017;-80
2023/02/01 14:44:01;;;;;;;23.88;10.20;;;;;;;1.72;61.79;98964.09;6188679;23;20017;-78
2023/02/01 14:47:06;;;;;;;20.80;9.45;;;;;;;1.71;62.51;98965.78;6160897;23;20021;-79
2023/02/01 14:49:36;;;;;;;24.50;10.25;;;;;;;1.74;62.09;98973.50;6187165;23;20013;-79
2023/02/01 14:52:09;;;;;;;23.15;9.32;;;;;;;1.69;61.85;98964.03;6160752;23;20513;-81
2023/02/01 14:54:37;;;;;;;21.60;9.38;;;;;;;1.60;62.92;98936.56;6186779;23;20028;-80
2023/02/01 14:57:04;;;;;;;25.17;10.57;;;;;;;1.61;62.57;98933.16;6186781;23;20028;-79
2023/02/01 14:59:36;;;;;;;21.88;10.05;;;;;;;1.80;61.83;98963.34;6110822;23;20020;-78
2023/02/01 15:02:49;;;;;;;23.30;10.63;;;;;;;1.29;61.45;98880.59;6187215;23;20009;-81
2023/02/01 15:05:32;;;;;;;;;;;;;;;1.75;61.63;98980.38;6175617;23;20052;-79
2023/02/01 15:08:28;;;;;;;27.77;11.52;;;;;;;1.03;62.25;98903.25;6188987;23;19911;-79
2023/02/01 15:11:17;;;;;;;32.65;13.45;;;;;;;1.46;62.06;98996.19;6164253;23;20017;-80
2023/02/01 15:14:23;;;;;;;25.70;11.63;;;;;;;0.90;62.79;98889.41;6161876;23;20032;-83
2023/02/01 15:17:37;;;;;;;23.25;10.55;;;;;;;0.84;63.12;98887.63;6027494;23;20025;-81
2023/02/01 15:20:29;;;;;;;27.48;11.20;;;;;;;0.04;62.71;98766.00;6159886;23;20052;-80